createdAt,value
2018-02-09T00:00:31.689Z,101139.14
2018-02-09T00:03:00.113Z,101136.12
2018-02-09T00:05:28.442Z,101130.88
2018-02-09T00:07:56.815Z,101127.38
2018-02-09T00:10:25.142Z,101129.55
2018-02-09T00:12:53.518Z,101129.95
2018-02-09T00:15:21.866Z,101124.73
2018-02-09T00:17:50.193Z,101125.61
2018-02-09T00:20:18.541Z,101123.84
2018-02-09T00:22:52.813Z,101126.81
2018-02-09T00:25:21.165Z,101125.53
2018-02-09T00:27:49.502Z,101122.89
2018-02-09T00:30:17.850Z,101127.20
2018-02-09T00:32:46.182Z,101126.79
2018-02-09T00:35:14.533Z,101125.89
2018-02-09T00:37:42.957Z,101125.44
2018-02-09T00:40:11.309Z,101122.83
2018-02-09T00:42:39.641Z,101120.65
2018-02-09T00:45:08.049Z,101125.41
2018-02-09T00:47:36.381Z,101119.74
2018-02-09T00:50:04.729Z,101121.91
2018-02-09T00:52:33.102Z,101114.56
2018-02-09T00:55:01.425Z,101110.66
2018-02-09T00:57:29.786Z,101111.94
2018-02-09T00:59:58.113Z,101109.77
2018-02-09T01:02:26.485Z,101107.58
2018-02-09T01:04:54.813Z,101105.42
2018-02-09T01:07:23.181Z,101108.47
2018-02-09T01:09:51.501Z,101102.38
2018-02-09T01:12:19.898Z,101102.38
2018-02-09T01:14:48.225Z,101095.89
2018-02-09T01:17:16.625Z,101099.80
2018-02-09T01:19:44.953Z,101088.94
2018-02-09T01:22:13.310Z,101091.98
2018-02-09T01:24:41.638Z,101088.52
2018-02-09T01:27:09.972Z,101085.51
2018-02-09T01:29:38.430Z,101085.05
2018-02-09T01:32:06.805Z,101087.20
2018-02-09T01:34:35.153Z,101081.55
2018-02-09T01:37:03.566Z,101081.11
2018-02-09T01:39:31.942Z,101080.66
2018-02-09T01:42:00.273Z,101078.92
2018-02-09T01:44:28.693Z,101072.00
2018-02-09T01:46:57.029Z,101069.83
2018-02-09T01:49:25.425Z,101071.97
2018-02-09T01:51:53.808Z,101078.85
2018-02-09T01:54:22.165Z,101077.09
2018-02-09T01:56:50.497Z,101076.64
2018-02-09T01:59:18.857Z,101067.08
2018-02-09T02:01:47.233Z,101074.01
2018-02-09T02:04:15.609Z,101073.96
2018-02-09T02:06:43.938Z,101072.64
2018-02-09T02:09:12.325Z,101072.59
2018-02-09T02:11:40.748Z,101071.75
2018-02-09T02:14:09.073Z,101070.00
2018-02-09T02:16:37.493Z,101064.75
2018-02-09T02:19:05.873Z,101063.03
2018-02-09T02:21:34.255Z,101064.76
2018-02-09T02:24:02.580Z,101063.87
2018-02-09T02:26:31.010Z,101060.88
2018-02-09T02:28:59.336Z,101058.28
2018-02-09T02:31:27.696Z,101056.16
2018-02-09T02:33:56.020Z,101059.66
2018-02-09T02:36:24.418Z,101058.67
2018-02-09T02:38:52.737Z,101041.45
2018-02-09T02:41:21.093Z,101039.78
2018-02-09T02:43:49.433Z,101037.13
2018-02-09T02:46:17.831Z,101032.31
2018-02-09T02:48:46.151Z,101034.09
2018-02-09T02:51:14.573Z,101034.19
2018-02-09T02:53:42.954Z,101027.33
2018-02-09T02:56:11.313Z,101029.98
2018-02-09T02:58:39.655Z,101022.95
2018-02-09T03:01:07.994Z,101023.42
2018-02-09T03:03:36.357Z,101022.64
2018-02-09T03:06:04.690Z,101022.68
2018-02-09T03:08:33.089Z,101019.67
2018-02-09T03:11:01.417Z,101009.30
2018-02-09T03:13:29.865Z,101012.80
2018-02-09T03:15:58.194Z,101011.94
2018-02-09T03:18:26.621Z,101008.02
2018-02-09T03:20:54.996Z,101002.81
2018-02-09T03:23:23.349Z,101008.00
2018-02-09T03:25:51.753Z,101001.03
2018-02-09T03:28:20.133Z,100997.00
2018-02-09T03:30:48.457Z,100999.06
2018-02-09T03:33:16.815Z,100998.16
2018-02-09T03:35:45.145Z,100992.44
2018-02-09T03:38:13.496Z,100988.56
2018-02-09T03:40:41.913Z,100983.62
2018-02-09T03:43:10.297Z,100982.41
2018-02-09T03:45:38.633Z,100972.49
2018-02-09T03:48:07.045Z,100972.09
2018-02-09T03:50:35.397Z,100973.38
2018-02-09T03:53:03.797Z,100968.99
2018-02-09T03:55:32.145Z,100971.19
2018-02-09T03:58:00.478Z,100966.89
2018-02-09T04:00:28.929Z,100969.88
2018-02-09T04:02:57.362Z,100964.30
2018-02-09T04:05:25.690Z,100963.45
2018-02-09T04:07:54.021Z,100965.98
2018-02-09T04:10:22.437Z,100962.05
2018-02-09T04:12:50.773Z,100958.14
2018-02-09T04:15:19.225Z,100957.30
2018-02-09T04:17:47.577Z,100952.96
2018-02-09T04:20:15.944Z,100947.38
2018-02-09T04:22:44.329Z,100944.82
2018-02-09T04:25:12.701Z,100946.09
2018-02-09T04:27:41.077Z,100931.40
2018-02-09T04:30:09.438Z,100933.97
2018-02-09T04:32:37.833Z,100931.78
2018-02-09T04:35:06.166Z,100931.23
2018-02-09T04:37:34.589Z,100928.31
2018-02-09T04:40:02.920Z,100922.31
2018-02-09T04:42:31.341Z,100922.45
2018-02-09T04:44:59.669Z,100913.45
2018-02-09T04:47:28.098Z,100918.22
2018-02-09T04:49:56.425Z,100920.34
2018-02-09T04:52:24.853Z,100918.91
2018-02-09T04:54:53.233Z,100919.30
2018-02-09T04:57:21.585Z,100911.15
2018-02-09T04:59:49.996Z,100913.74
2018-02-09T05:02:18.341Z,100911.13
2018-02-09T05:04:46.687Z,100911.45
2018-02-09T05:07:15.068Z,100913.33
2018-02-09T05:09:43.377Z,100911.55
2018-02-09T05:12:11.735Z,100909.34
2018-02-09T05:14:40.098Z,100906.33
2018-02-09T05:17:08.434Z,100905.89
2018-02-09T05:19:36.776Z,100900.24
2018-02-09T05:22:05.129Z,100902.79
2018-02-09T05:24:33.458Z,100902.34
2018-02-09T05:27:01.793Z,100908.67
2018-02-09T05:29:30.143Z,100907.86
2018-02-09T05:31:58.473Z,100908.26
2018-02-09T05:34:26.821Z,100906.98
2018-02-09T05:36:55.153Z,100906.49
2018-02-09T05:39:23.505Z,100908.45
2018-02-09T05:41:51.837Z,100901.41
2018-02-09T05:44:20.191Z,100908.82
2018-02-09T05:46:48.526Z,100903.20
2018-02-09T05:49:16.882Z,100907.47
2018-02-09T05:51:45.217Z,100906.39
2018-02-09T05:54:13.568Z,100901.79
2018-02-09T05:56:41.900Z,100896.73
2018-02-09T05:59:10.254Z,100896.88
2018-02-09T06:01:38.586Z,100896.39
2018-02-09T06:04:06.942Z,100894.70
2018-02-09T06:06:35.303Z,100896.50
2018-02-09T06:09:03.633Z,100889.70
2018-02-09T06:11:31.965Z,100888.95
2018-02-09T06:14:00.330Z,100888.59
2018-02-09T06:16:28.690Z,100891.64
2018-02-09T06:18:57.042Z,100885.50
2018-02-09T06:21:25.471Z,100888.32
2018-02-09T06:23:53.822Z,100885.95
2018-02-09T06:26:22.192Z,100877.78
2018-02-09T06:28:51.877Z,100874.54
2018-02-09T06:31:21.534Z,100876.34
2018-02-09T06:33:49.845Z,100872.89
2018-02-09T06:36:18.288Z,100868.97
2018-02-09T06:38:46.612Z,100875.50
2018-02-09T06:41:14.965Z,100876.80
2018-02-09T06:43:43.301Z,100872.78
2018-02-09T06:46:11.653Z,100878.84
2018-02-09T06:48:40.026Z,100874.45
2018-02-09T06:51:08.879Z,100873.98
2018-02-09T06:53:37.850Z,100872.83
2018-02-09T06:56:06.669Z,100870.21
2018-02-09T06:58:36.109Z,100870.73
2018-02-09T07:01:04.525Z,100867.22
2018-02-09T07:03:32.881Z,100868.08
2018-02-09T07:06:01.227Z,100866.84
2018-02-09T07:08:29.589Z,100870.73
2018-02-09T07:10:57.921Z,100869.84
2018-02-09T07:13:26.281Z,100869.86
2018-02-09T07:15:54.612Z,100867.17
2018-02-09T07:18:22.974Z,100860.28
2018-02-09T07:20:51.329Z,100862.08
2018-02-09T07:23:19.685Z,100864.77
2018-02-09T07:25:48.021Z,100862.98
2018-02-09T07:28:16.389Z,100857.84
2018-02-09T07:30:44.733Z,100855.20
2018-02-09T07:33:13.071Z,100856.52
2018-02-09T07:35:41.421Z,100856.45
2018-02-09T07:38:09.763Z,100858.78
2018-02-09T07:40:38.117Z,100847.61
2018-02-09T07:43:06.460Z,100847.55
2018-02-09T07:45:35.326Z,100844.59
2018-02-09T07:48:03.661Z,100842.48
2018-02-09T07:50:32.061Z,100843.00
2018-02-09T07:53:00.952Z,100844.70
2018-02-09T07:55:29.295Z,100846.87
2018-02-09T07:57:57.633Z,100848.66
2018-02-09T08:00:25.998Z,100844.36
2018-02-09T08:02:54.334Z,100849.15
2018-02-09T08:05:23.484Z,100844.86
2018-02-09T08:07:51.906Z,100844.99
2018-02-09T08:10:20.261Z,100837.67
2018-02-09T08:12:48.649Z,100838.18
2018-02-09T08:15:17.002Z,100838.23
2018-02-09T08:17:45.373Z,100841.36
2018-02-09T08:20:13.697Z,100838.45
2018-02-09T08:22:42.058Z,100845.81
2018-02-09T08:25:10.810Z,100844.13
2018-02-09T08:27:39.153Z,100848.44
2018-02-09T08:30:07.531Z,100845.87
2018-02-09T08:32:35.845Z,100846.78
2018-02-09T08:35:04.203Z,100840.41
2018-02-09T08:37:32.545Z,100845.06
2018-02-09T08:40:00.880Z,100837.27
2018-02-09T08:42:29.571Z,100842.16
2018-02-09T08:44:57.885Z,100837.89
2018-02-09T08:47:26.248Z,100836.30
2018-02-09T08:49:54.586Z,100839.31
2018-02-09T08:52:22.977Z,100835.16
2018-02-09T08:54:51.329Z,100829.08
2018-02-09T08:57:19.697Z,100827.81
2018-02-09T08:59:48.041Z,100827.03
2018-02-09T09:02:16.400Z,100831.06
2018-02-09T09:04:44.961Z,100822.92
2018-02-09T09:07:13.326Z,100825.57
2018-02-09T09:09:41.653Z,100818.30
2018-02-09T09:12:09.990Z,100823.92
2018-02-09T09:14:38.349Z,100823.56
2018-02-09T09:17:06.681Z,100818.34
2018-02-09T09:19:35.049Z,100811.44
2018-02-09T09:22:03.392Z,100817.92
2018-02-09T09:24:31.758Z,100812.73
2018-02-09T09:27:00.090Z,100809.73
2018-02-09T09:29:28.445Z,100810.27
2018-02-09T09:31:56.777Z,100805.98
2018-02-09T09:34:25.141Z,100797.78
2018-02-09T09:36:53.473Z,100793.88
2018-02-09T09:39:21.870Z,100791.30
2018-02-09T09:41:50.205Z,100795.66
2018-02-09T09:44:19.362Z,100796.13
2018-02-09T09:46:47.697Z,100796.57
2018-02-09T09:49:16.042Z,100793.55
2018-02-09T09:51:44.523Z,100794.00
2018-02-09T09:54:12.846Z,100791.38
2018-02-09T09:56:41.214Z,100785.74
2018-02-09T09:59:09.557Z,100783.59
2018-02-09T10:01:37.916Z,100786.63
2018-02-09T10:04:06.242Z,100780.10
2018-02-09T10:06:35.518Z,100774.45
2018-02-09T10:09:03.858Z,100784.44
2018-02-09T10:11:32.205Z,100775.69
2018-02-09T10:14:00.533Z,100769.18
2018-02-09T10:16:28.886Z,100764.38
2018-02-09T10:18:57.209Z,100766.97
2018-02-09T10:21:25.700Z,100766.06
2018-02-09T10:23:54.050Z,100759.99
2018-02-09T10:26:22.400Z,100766.06
2018-02-09T10:28:50.729Z,100763.48
2018-02-09T10:31:19.077Z,100756.94
2018-02-09T10:33:47.405Z,100751.28
2018-02-09T10:36:15.764Z,100750.80
2018-02-09T10:38:44.089Z,100747.77
2018-02-09T10:41:12.421Z,100748.61
2018-02-09T10:43:40.765Z,100750.30
2018-02-09T10:46:09.095Z,100750.74
2018-02-09T10:48:37.441Z,100742.91
2018-02-09T10:51:05.768Z,100739.80
2018-02-09T10:53:34.236Z,100741.98
2018-02-09T10:56:02.564Z,100739.35
2018-02-09T10:58:30.913Z,100734.11
2018-02-09T11:00:59.265Z,100735.87
2018-02-09T11:03:28.153Z,100742.84
2018-02-09T11:05:56.494Z,100740.59
2018-02-09T11:08:24.838Z,100742.34
2018-02-09T11:10:53.169Z,100737.56
2018-02-09T11:13:27.134Z,100737.56
2018-02-09T11:15:55.458Z,100738.85
2018-02-09T11:18:23.806Z,100733.18
2018-02-09T11:20:52.133Z,100735.28
2018-02-09T11:23:20.489Z,100738.84
2018-02-09T11:25:48.813Z,100739.23
2018-02-09T11:28:17.165Z,100734.91
2018-02-09T11:30:45.493Z,100731.39
2018-02-09T11:33:13.824Z,100728.33
2018-02-09T11:35:42.182Z,100720.99
2018-02-09T11:38:11.170Z,100727.42
2018-02-09T11:40:39.513Z,100719.20
2018-02-09T11:43:07.866Z,100717.34
2018-02-09T11:45:36.212Z,100719.08
2018-02-09T11:48:04.565Z,100714.77
2018-02-09T11:50:32.913Z,100711.28
2018-02-09T11:53:01.242Z,100711.66
2018-02-09T11:55:29.602Z,100713.38
2018-02-09T11:57:57.921Z,100716.03
2018-02-09T12:00:26.277Z,100709.09
2018-02-09T12:02:54.666Z,100711.19
2018-02-09T12:05:23.018Z,100711.63
2018-02-09T12:07:51.341Z,100711.09
2018-02-09T12:10:19.689Z,100703.77
2018-02-09T12:12:48.954Z,100706.81
2018-02-09T12:15:17.305Z,100699.41
2018-02-09T12:17:45.633Z,100698.56
2018-02-09T12:20:13.990Z,100694.18
2018-02-09T12:22:42.342Z,100691.54
2018-02-09T12:25:10.734Z,100693.72
2018-02-09T12:27:39.319Z,100694.51
2018-02-09T12:30:07.765Z,100687.92
2018-02-09T12:32:36.148Z,100690.52
2018-02-09T12:35:04.489Z,100688.80
2018-02-09T12:37:33.565Z,100677.84
2018-02-09T12:40:01.934Z,100676.94
2018-02-09T12:42:30.318Z,100676.91
2018-02-09T12:44:58.661Z,100674.27
2018-02-09T12:47:28.090Z,100671.65
2018-02-09T12:49:56.425Z,100665.48
2018-02-09T12:52:24.827Z,100658.44
2018-02-09T12:54:53.163Z,100658.04
2018-02-09T12:57:21.636Z,100652.40
2018-02-09T12:59:50.045Z,100651.97
2018-02-09T13:02:18.387Z,100653.67
2018-02-09T13:04:46.713Z,100648.38
2018-02-09T13:07:15.066Z,100650.37
2018-02-09T13:09:43.397Z,100660.33
2018-02-09T13:12:23.751Z,100649.67
2018-02-09T13:14:52.188Z,100647.45
2018-02-09T13:17:20.517Z,100639.44
2018-02-09T13:19:48.854Z,100643.95
2018-02-09T13:22:29.087Z,100644.98
2018-02-09T13:24:57.412Z,100637.60
2018-02-09T13:27:25.744Z,100634.03
2018-02-09T13:29:54.105Z,100637.30
2018-02-09T13:32:34.204Z,100630.77
2018-02-09T13:35:02.537Z,100636.33
2018-02-09T13:37:33.752Z,100631.05
2018-02-09T13:40:02.105Z,100633.85
2018-02-09T13:42:30.432Z,100638.07
2018-02-09T13:44:58.780Z,100628.44
2018-02-09T13:47:27.118Z,100632.36
2018-02-09T13:49:55.481Z,100629.42
2018-02-09T13:52:24.646Z,100629.23
2018-02-09T13:54:53.019Z,100630.19
2018-02-09T13:57:21.356Z,100629.45
2018-02-09T13:59:49.719Z,100625.93
2018-02-09T14:02:18.040Z,100624.22
2018-02-09T14:04:46.390Z,100621.20
2018-02-09T14:07:14.712Z,100619.45
2018-02-09T14:09:43.102Z,100617.70
2018-02-09T14:12:11.399Z,100611.56
2018-02-09T14:14:39.742Z,100613.92
2018-02-09T14:17:08.074Z,100619.89
2018-02-09T14:19:36.420Z,100610.84
2018-02-09T14:22:04.757Z,100609.53
2018-02-09T14:24:33.118Z,100609.97
2018-02-09T14:27:01.449Z,100608.62
2018-02-09T14:29:29.805Z,100612.07
2018-02-09T14:31:58.133Z,100609.86
2018-02-09T14:34:26.465Z,100603.89
2018-02-09T14:36:54.817Z,100602.98
2018-02-09T14:39:23.145Z,100600.84
2018-02-09T14:41:51.493Z,100606.84
2018-02-09T14:44:19.817Z,100604.80
2018-02-09T14:46:48.169Z,100603.92
2018-02-09T14:49:16.498Z,100598.69
2018-02-09T14:51:44.845Z,100605.60
2018-02-09T14:54:13.175Z,100601.12
2018-02-09T14:56:41.528Z,100593.39
2018-02-09T14:59:09.853Z,100596.48
2018-02-09T15:01:38.209Z,100599.02
2018-02-09T15:04:06.537Z,100594.66
2018-02-09T15:06:34.894Z,100592.48
2018-02-09T15:09:03.226Z,100592.98
2018-02-09T15:11:31.581Z,100597.34
2018-02-09T15:13:59.905Z,100596.95
2018-02-09T15:16:28.233Z,100595.27
2018-02-09T15:18:56.582Z,100599.09
2018-02-09T15:21:24.911Z,100601.81
2018-02-09T15:23:53.257Z,100601.78
2018-02-09T15:26:21.590Z,100600.13
2018-02-09T15:28:49.942Z,100597.85
2018-02-09T15:31:18.274Z,100595.70
2018-02-09T15:33:46.617Z,100597.58
2018-02-09T15:36:14.958Z,100594.94
2018-02-09T15:38:43.323Z,100588.80
2018-02-09T15:43:52.562Z,100594.72
2018-02-09T15:46:20.890Z,100595.56
2018-02-09T15:48:49.238Z,100596.00
2018-02-09T15:51:17.569Z,100597.42
2018-02-09T15:53:45.929Z,100593.01
2018-02-09T15:56:14.301Z,100591.70
2018-02-09T15:58:42.610Z,100583.39
2018-02-09T16:01:10.966Z,100587.66
2018-02-09T16:03:39.297Z,100580.83
2018-02-09T16:06:07.649Z,100579.59
2018-02-09T16:08:35.989Z,100583.13
2018-02-09T16:11:04.338Z,100580.55
2018-02-09T16:13:32.665Z,100578.88
2018-02-09T16:16:01.903Z,100578.45
2018-02-09T16:18:30.222Z,100580.59
2018-02-09T16:20:58.569Z,100588.55
2018-02-09T16:23:26.897Z,100582.77
2018-02-09T16:25:56.158Z,100591.46
2018-02-09T16:28:24.484Z,100600.77
2018-02-09T16:30:52.828Z,100601.59
2018-02-09T16:33:21.165Z,100602.41
2018-02-09T16:35:49.566Z,100601.56
2018-02-09T16:38:17.874Z,100601.12
2018-02-09T16:40:46.197Z,100601.61
2018-02-09T16:43:14.814Z,100596.77
2018-02-09T16:45:43.374Z,100597.72
2018-02-09T16:48:11.709Z,100595.23
2018-02-09T16:50:40.039Z,100596.64
2018-02-09T16:53:08.409Z,100602.30
2018-02-09T16:55:36.724Z,100607.52
2018-02-09T16:58:05.077Z,100607.97
2018-02-09T17:00:33.460Z,100614.55
2018-02-09T17:03:01.757Z,100612.85
2018-02-09T17:05:30.086Z,100627.16
2018-02-09T17:07:58.433Z,100625.37
2018-02-09T17:10:26.765Z,100624.63
2018-02-09T17:12:55.122Z,100627.63
2018-02-09T17:15:23.445Z,100631.62
2018-02-09T17:17:51.798Z,100635.52
2018-02-09T17:20:20.121Z,100629.84
2018-02-09T17:22:48.470Z,100630.77
2018-02-09T17:25:16.798Z,100636.02
2018-02-09T17:27:45.174Z,100630.80
2018-02-09T17:30:13.498Z,100635.97
2018-02-09T17:32:41.878Z,100638.17
2018-02-09T17:35:10.206Z,100637.30
2018-02-09T17:37:38.578Z,100641.66
2018-02-09T17:40:06.937Z,100645.17
2018-02-09T17:42:35.257Z,100645.13
2018-02-09T17:45:04.245Z,100646.47
2018-02-09T17:47:32.603Z,100649.52
2018-02-09T17:50:00.945Z,100646.93
2018-02-09T17:52:29.285Z,100653.43
2018-02-09T17:54:57.637Z,100645.24
2018-02-09T17:57:26.135Z,100646.94
2018-02-09T17:59:54.594Z,100638.30
2018-02-09T18:02:23.071Z,100641.36
2018-02-09T18:04:51.502Z,100639.66
2018-02-09T18:07:19.829Z,100636.20
2018-02-09T18:09:48.355Z,100631.88
2018-02-09T18:12:16.678Z,100637.09
2018-02-09T18:14:45.134Z,100636.24
2018-02-09T18:17:13.495Z,100640.13
2018-02-09T18:19:41.846Z,100639.68
2018-02-09T18:22:10.181Z,100640.56
2018-02-09T18:24:38.505Z,100642.73
2018-02-09T18:27:06.853Z,100644.46
2018-02-09T18:29:35.181Z,100651.41
2018-02-09T18:32:03.529Z,100656.22
2018-02-09T18:34:31.901Z,100655.77
2018-02-09T18:37:01.530Z,100651.42
2018-02-09T18:39:29.862Z,100651.41
2018-02-09T18:42:02.153Z,100654.91
2018-02-09T18:44:30.482Z,100651.89
2018-02-09T18:46:58.832Z,100656.66
2018-02-09T18:49:27.162Z,100658.38
2018-02-09T18:51:55.517Z,100658.82
2018-02-09T18:54:24.870Z,100651.86
2018-02-09T18:56:53.218Z,100660.77
2018-02-09T18:59:21.629Z,100657.09
2018-02-09T19:01:50.010Z,100656.81
2018-02-09T19:04:18.387Z,100659.53
2018-02-09T19:06:46.810Z,100659.14
2018-02-09T19:09:15.130Z,100655.25
2018-02-09T19:11:43.457Z,100664.41
2018-02-09T19:14:11.812Z,100653.56
2018-02-09T19:16:40.128Z,100657.48
2018-02-09T19:19:08.481Z,100656.16
2018-02-09T19:21:36.813Z,100654.86
2018-02-09T19:24:05.157Z,100655.35
2018-02-09T19:26:33.573Z,100659.24
2018-02-09T19:29:01.950Z,100656.22
2018-02-09T19:31:30.328Z,100658.38
2018-02-09T19:33:58.678Z,100659.70
2018-02-09T19:36:27.001Z,100659.70
2018-02-09T19:38:55.357Z,100660.16
2018-02-09T19:41:23.732Z,100661.44
2018-02-09T19:43:52.089Z,100661.45
2018-02-09T19:46:20.490Z,100667.97
2018-02-09T19:48:48.836Z,100670.58
2018-02-09T19:51:17.165Z,100666.23
2018-02-09T19:53:45.777Z,100671.88
2018-02-09T19:56:14.093Z,100671.00
2018-02-09T19:58:42.426Z,100668.41
2018-02-09T20:01:10.765Z,100669.27
2018-02-09T20:03:39.093Z,100674.05
2018-02-09T20:06:07.505Z,100663.65
2018-02-09T20:08:35.833Z,100667.12
2018-02-09T20:11:05.149Z,100670.14
2018-02-09T20:13:33.561Z,100679.25
2018-02-09T20:16:01.945Z,100674.91
2018-02-09T20:18:30.321Z,100678.80
2018-02-09T20:20:58.670Z,100674.42
2018-02-09T20:23:26.997Z,100679.64
2018-02-09T20:25:56.345Z,100677.89
2018-02-09T20:28:24.673Z,100684.41
2018-02-09T20:30:53.134Z,100676.59
2018-02-09T20:33:21.469Z,100675.33
2018-02-09T20:35:49.828Z,100683.14
2018-02-09T20:38:18.159Z,100680.52
2018-02-09T20:40:46.525Z,100682.27
2018-02-09T20:43:14.900Z,100681.83
2018-02-09T20:45:43.530Z,100687.05
2018-02-09T20:48:11.861Z,100687.47
2018-02-09T20:50:40.194Z,100692.26
2018-02-09T20:53:08.618Z,100687.47
2018-02-09T20:55:36.993Z,100686.62
2018-02-09T20:58:05.341Z,100691.81
2018-02-09T21:00:33.745Z,100695.73
2018-02-09T21:03:02.281Z,100692.25
2018-02-09T21:05:30.567Z,100693.57
2018-02-09T21:07:58.913Z,100693.12
2018-02-09T21:10:27.238Z,100699.67
2018-02-09T21:12:56.099Z,100699.65
2018-02-09T21:15:25.459Z,100705.33
2018-02-09T21:17:53.871Z,100701.86
2018-02-09T21:20:22.324Z,100707.49
2018-02-09T21:22:50.781Z,100700.53
2018-02-09T21:25:19.112Z,100705.77
2018-02-09T21:27:47.533Z,100706.64
2018-02-09T21:30:15.909Z,100711.86
2018-02-09T21:32:44.257Z,100713.18
2018-02-09T21:35:12.580Z,100715.77
2018-02-09T21:37:40.933Z,100720.55
2018-02-09T21:40:09.317Z,100717.97
2018-02-09T21:42:37.701Z,100720.56
2018-02-09T21:45:06.078Z,100721.45
2018-02-09T21:47:34.405Z,100724.04
2018-02-09T21:50:02.767Z,100723.59
2018-02-09T21:52:31.092Z,100726.65
2018-02-09T21:54:59.449Z,100723.17
2018-02-09T21:57:27.864Z,100723.62
2018-02-09T21:59:56.217Z,100725.77
2018-02-09T22:02:24.559Z,100725.79
2018-02-09T22:04:52.989Z,100724.46
2018-02-09T22:07:21.370Z,100726.66
2018-02-09T22:09:49.745Z,100720.98
2018-02-09T22:12:18.081Z,100723.16
2018-02-09T22:14:46.552Z,100720.13
2018-02-09T22:17:15.186Z,100724.87
2018-02-09T22:19:43.561Z,100727.94
2018-02-09T22:22:11.938Z,100730.55
2018-02-09T22:24:40.312Z,100735.77
2018-02-09T22:27:08.673Z,100730.09
2018-02-09T22:29:37.001Z,100736.17
2018-02-09T22:32:05.441Z,100733.14
2018-02-09T22:34:33.779Z,100729.66
2018-02-09T22:37:02.133Z,100731.41
2018-02-09T22:39:30.466Z,100733.59
2018-02-09T22:41:58.825Z,100724.01
2018-02-09T22:44:27.272Z,100725.75
2018-02-09T22:46:56.505Z,100725.31
2018-02-09T22:49:24.901Z,100729.22
2018-02-09T22:51:53.277Z,100723.55
2018-02-09T22:54:21.657Z,100723.56
2018-02-09T22:56:50.013Z,100723.10
2018-02-09T22:59:18.349Z,100722.67
2018-02-09T23:01:46.685Z,100718.77
2018-02-09T23:04:15.061Z,100723.09
2018-02-09T23:06:43.393Z,100727.44
2018-02-09T23:09:11.749Z,100727.88
2018-02-09T23:11:40.088Z,100730.45
2018-02-09T23:14:08.441Z,100726.98
2018-02-09T23:16:38.029Z,100727.41
2018-02-09T23:19:06.465Z,100731.77
2018-02-09T23:21:34.796Z,100736.96
2018-02-09T23:24:03.155Z,100736.08
2018-02-09T23:26:31.488Z,100733.48
2018-02-09T23:28:59.845Z,100735.19
2018-02-09T23:31:28.242Z,100730.41
2018-02-09T23:33:56.597Z,100739.45
2018-02-09T23:36:24.938Z,100734.68
2018-02-09T23:38:53.289Z,100737.64
2018-02-09T23:41:21.844Z,100735.53
2018-02-09T23:43:50.205Z,100737.30
2018-02-09T23:46:18.597Z,100737.30
2018-02-09T23:48:46.934Z,100738.16
2018-02-09T23:51:15.365Z,100738.17
2018-02-09T23:53:43.719Z,100737.70
2018-02-09T23:56:12.081Z,100739.42
2018-02-09T23:58:40.449Z,100736.30
